Time;durP1;ratioP1;P1;durP2;ratioP2;P2;SDS_P1;SDS_P2;PMS_P1;PMS_P2;Temp;Humidity;BMP_temperature;BMP_pressure;BME280_temperature;BME280_humidity;BME280_pressure;Samples;Min_cycle;Max_cycle;Signal;HPM_P1;HPM_P2
2021/06/29 00:02:25;;;;;;;2.92;2.50;;;18.20;84.50;;;;;;5017432;28;20152;-78
2021/06/29 00:04:51;;;;;;;3.47;2.78;;;18.10;84.60;;;;;;5017728;28;20091;-78
2021/06/29 00:07:20;;;;;;;3.53;2.50;;;18.00;84.70;;;;;;5018051;28;20025;-78
2021/06/29 00:09:47;;;;;;;2.45;2.25;;;18.10;84.60;;;;;;5017737;28;20083;-78
2021/06/29 00:12:13;;;;;;;3.92;2.60;;;18.20;84.30;;;;;;5017398;28;20022;-78
2021/06/29 00:14:40;;;;;;;2.60;2.40;;;18.30;84.40;;;;;;5017451;28;20133;-78
2021/06/29 00:17:07;;;;;;;3.97;2.42;;;18.30;84.30;;;;;;5035849;28;20108;-78
2021/06/29 00:19:32;;;;;;;3.53;2.30;;;18.30;84.20;;;;;;5019009;28;20051;-78
2021/06/29 00:21:58;;;;;;;2.35;2.15;;;18.30;83.90;;;;;;5019732;28;20470;-78
2021/06/29 00:24:24;;;;;;;2.45;2.10;;;18.30;83.30;;;;;;5018347;28;20036;-78
2021/06/29 00:26:50;;;;;;;2.20;2.10;;;18.30;83.20;;;;;;5035286;28;20022;-78
2021/06/29 00:29:16;;;;;;;3.08;2.80;;;18.30;82.70;;;;;;5000873;28;20044;-78
2021/06/29 00:31:42;;;;;;;4.45;2.70;;;18.20;82.20;;;;;;5017742;28;20037;-78
2021/06/29 00:34:08;;;;;;;3.03;2.80;;;18.20;82.30;;;;;;5035265;28;20112;-78
2021/06/29 00:36:35;;;;;;;3.08;2.72;;;18.40;81.80;;;;;;5000783;28;20022;-78
2021/06/29 00:39:00;;;;;;;3.00;2.70;;;18.40;81.60;;;;;;5017013;28;20053;-78
2021/06/29 00:41:29;;;;;;;2.90;2.65;;;18.40;81.60;;;;;;5016907;28;20064;-78
2021/06/29 00:43:55;;;;;;;3.13;2.80;;;18.40;82.30;;;;;;5017086;28;20025;-78
2021/06/29 00:46:21;;;;;;;13.23;3.08;;;18.30;81.70;;;;;;5000883;28;20061;-76
2021/06/29 00:48:47;;;;;;;3.75;2.38;;;18.30;82.50;;;;;;5016997;28;20064;-78
2021/06/29 00:51:15;;;;;;;4.45;2.50;;;18.30;81.90;;;;;;5016827;28;20026;-77
2021/06/29 00:53:42;;;;;;;4.85;2.28;;;18.30;81.30;;;;;;5016687;28;20029;-78
2021/06/29 00:56:14;;;;;;;2.45;2.08;;;18.20;80.80;;;;;;5016819;28;20017;-77
2021/06/29 00:58:45;;;;;;;2.45;1.80;;;18.00;80.20;;;;;;5016641;28;20386;-77
2021/06/29 01:01:11;;;;;;;2.25;2.03;;;18.00;81.10;;;;;;5016230;28;20075;-77
2021/06/29 01:03:39;;;;;;;3.33;1.85;;;18.00;81.70;;;;;;5016706;28;20508;-76
2021/06/29 01:06:10;;;;;;;3.20;1.98;;;18.00;81.90;;;;;;5000337;28;20563;-76
2021/06/29 01:08:36;;;;;;;2.60;1.92;;;18.10;82.20;;;;;;5016592;28;20017;-76
2021/06/29 01:11:02;;;;;;;1.80;1.70;;;17.90;83.00;;;;;;5000018;28;20036;-76
2021/06/29 01:13:32;;;;;;;3.15;1.90;;;17.70;83.30;;;;;;5016436;28;20029;-76
2021/06/29 01:15:59;;;;;;;4.63;1.90;;;17.60;84.60;;;;;;5033210;28;20540;-76
2021/06/29 01:18:24;;;;;;;1.55;1.45;;;17.50;84.30;;;;;;5016298;28;20063;-76
2021/06/29 01:20:50;;;;;;;1.90;1.80;;;17.50;84.60;;;;;;5016276;28;20439;-76
2021/06/29 01:23:20;;;;;;;1.67;1.55;;;17.50;85.00;;;;;;5033972;28;20025;-76
2021/06/29 01:25:46;;;;;;;2.13;1.80;;;17.60;85.00;;;;;;5008295;28;20485;-77
2021/06/29 01:28:23;;;;;;;4.55;1.50;;;17.60;84.40;;;;;;5016114;28;20525;-77
2021/06/29 01:31:03;;;;;;;1.98;1.70;;;17.70;83.80;;;;;;5016067;28;20116;-77
2021/06/29 01:33:29;;;;;;;3.08;1.35;;;17.80;84.30;;;;;;5015966;28;20055;-77
2021/06/29 01:35:55;;;;;;;2.08;1.40;;;17.90;83.10;;;;;;5033580;28;20067;-77
2021/06/29 01:38:24;;;;;;;3.92;2.05;;;17.90;82.20;;;;;;5015660;28;20033;-77
2021/06/29 01:40:51;;;;;;;1.90;1.42;;;17.90;83.60;;;;;;5015725;28;20116;-77
2021/06/29 01:43:21;;;;;;;5.05;1.50;;;18.00;83.70;;;;;;5015754;28;20032;-77
2021/06/29 01:45:49;;;;;;;2.08;1.40;;;18.10;83.80;;;;;;5015953;28;20037;-77
2021/06/29 01:48:20;;;;;;;3.60;1.30;;;18.10;82.90;;;;;;5016338;28;20068;-77
2021/06/29 01:50:51;;;;;;;2.35;1.20;;;18.20;82.60;;;;;;5015735;28;20033;-77
2021/06/29 01:53:18;;;;;;;2.33;1.30;;;18.20;81.40;;;;;;5007406;28;20037;-79
2021/06/29 01:55:44;;;;;;;1.70;1.33;;;18.20;81.50;;;;;;5048435;28;20033;-77
2021/06/29 01:58:09;;;;;;;1.30;1.20;;;18.30;80.90;;;;;;5022374;28;20037;-77
2021/06/29 02:00:36;;;;;;;1.33;1.23;;;18.30;81.60;;;;;;5033371;28;20402;-79
2021/06/29 02:03:04;;;;;;;1.80;1.60;;;18.40;82.00;;;;;;5015209;28;20053;-77
2021/06/29 02:05:29;;;;;;;1.25;1.15;;;18.50;82.30;;;;;;5015531;28;20026;-80
2021/06/29 02:07:56;;;;;;;2.80;1.48;;;18.40;82.10;;;;;;5015415;28;20104;-78
2021/06/29 02:10:22;;;;;;;3.38;1.45;;;18.40;82.30;;;;;;5015494;28;20064;-80
2021/06/29 02:12:48;;;;;;;1.33;1.23;;;18.40;82.30;;;;;;5015170;28;20044;-77
2021/06/29 02:15:14;;;;;;;2.95;1.20;;;18.50;82.20;;;;;;5015329;28;20021;-79
2021/06/29 02:17:40;;;;;;;2.50;1.30;;;18.50;82.60;;;;;;5015145;28;20061;-78
2021/06/29 02:20:08;;;;;;;3.70;1.30;;;18.50;82.30;;;;;;5015355;28;20512;-77
2021/06/29 02:22:33;;;;;;;2.72;1.30;;;18.50;82.50;;;;;;5032502;28;20056;-77
2021/06/29 02:24:59;;;;;;;1.25;1.15;;;18.50;82.30;;;;;;4998688;28;20505;-77
2021/06/29 02:27:29;;;;;;;2.70;1.30;;;18.40;82.10;;;;;;5032413;28;20037;-77
2021/06/29 02:29:54;;;;;;;2.05;1.30;;;18.40;81.90;;;;;;5015267;28;20386;-77
2021/06/29 02:32:20;;;;;;;1.33;1.23;;;18.30;81.70;;;;;;5015101;28;20018;-79
2021/06/29 02:34:47;;;;;;;0.98;0.98;;;18.30;82.80;;;;;;4998480;28;20039;-80
2021/06/29 02:37:13;;;;;;;1.02;0.90;;;18.20;78.60;;;;;;5015251;28;20041;-79
2021/06/29 02:39:39;;;;;;;1.15;0.82;;;18.10;78.20;;;;;;5014696;28;20038;-78
2021/06/29 02:42:05;;;;;;;1.42;1.08;;;18.10;79.80;;;;;;5014629;28;20564;-78
2021/06/29 02:44:33;;;;;;;1.48;1.25;;;18.10;81.50;;;;;;5014617;28;20032;-79
2021/06/29 02:46:59;;;;;;;1.48;1.17;;;18.30;82.10;;;;;;5014872;28;20040;-79
2021/06/29 02:49:24;;;;;;;1.95;1.17;;;18.40;82.20;;;;;;5014664;28;20025;-78
2021/06/29 02:51:50;;;;;;;3.80;1.30;;;18.40;81.80;;;;;;5032509;28;20478;-78
2021/06/29 02:54:16;;;;;;;3.10;1.20;;;18.50;81.70;;;;;;5013977;28;20072;-78
2021/06/29 02:56:41;;;;;;;2.30;1.15;;;18.50;81.70;;;;;;5031947;28;20026;-78
2021/06/29 02:59:09;;;;;;;1.30;1.20;;;18.50;81.50;;;;;;5014460;28;20036;-78
2021/06/29 03:01:36;;;;;;;1.30;1.20;;;18.40;81.10;;;;;;5014422;28;20429;-77
2021/06/29 03:04:04;;;;;;;2.50;1.20;;;18.40;81.80;;;;;;5014456;28;20478;-78
2021/06/29 03:06:30;;;;;;;1.88;1.05;;;18.20;82.40;;;;;;4998567;28;20025;-78
2021/06/29 03:08:55;;;;;;;2.13;0.95;;;18.20;82.50;;;;;;5014668;28;20052;-78
2021/06/29 03:11:22;;;;;;;1.65;1.05;;;18.10;82.10;;;;;;5014447;28;20037;-78
2021/06/29 03:13:48;;;;;;;1.77;1.35;;;18.00;83.00;;;;;;5014223;28;20026;-78
2021/06/29 03:16:14;;;;;;;3.13;1.20;;;18.00;83.40;;;;;;5014903;28;20033;-78
2021/06/29 03:18:41;;;;;;;1.55;1.38;;;17.90;81.00;;;;;;5014392;28;20386;-77
2021/06/29 03:21:07;;;;;;;3.90;1.50;;;17.70;79.20;;;;;;5014348;28;20473;-78
2021/06/29 03:23:35;;;;;;;1.40;1.10;;;17.50;79.70;;;;;;5014635;28;20108;-78
2021/06/29 03:26:02;;;;;;;1.80;1.20;;;17.30;82.00;;;;;;5014461;28;20029;-78
2021/06/29 03:28:28;;;;;;;1.48;1.38;;;17.20;82.40;;;;;;5032047;28;20083;-78
2021/06/29 03:30:54;;;;;;;2.17;1.33;;;17.00;83.00;;;;;;5032045;28;20473;-78
2021/06/29 03:33:20;;;;;;;2.75;1.63;;;16.90;84.40;;;;;;5014037;28;20025;-78
2021/06/29 03:35:46;;;;;;;1.88;1.60;;;16.90;85.90;;;;;;5016564;28;20124;-78
2021/06/29 03:38:12;;;;;;;3.92;1.58;;;16.80;87.30;;;;;;5017861;28;20044;-78
2021/06/29 03:40:38;;;;;;;1.90;1.50;;;16.80;87.60;;;;;;5001506;28;20377;-78
2021/06/29 03:43:04;;;;;;;2.90;1.50;;;16.70;86.90;;;;;;5017678;28;20026;-78
2021/06/29 03:45:31;;;;;;;1.88;1.67;;;16.60;87.90;;;;;;5017862;28;20029;-78
2021/06/29 03:47:58;;;;;;;2.30;1.52;;;16.60;88.90;;;;;;5017405;28;20036;-78
2021/06/29 03:50:25;;;;;;;1.40;1.30;;;16.60;88.40;;;;;;5017875;28;20033;-80
2021/06/29 03:52:52;;;;;;;1.50;1.40;;;16.60;86.30;;;;;;5018067;28;20072;-78
2021/06/29 03:55:18;;;;;;;1.83;1.58;;;16.50;85.40;;;;;;5001653;28;20474;-79
2021/06/29 03:57:44;;;;;;;1.30;1.20;;;16.50;85.60;;;;;;5017371;28;20034;-78
2021/06/29 04:00:10;;;;;;;3.63;1.40;;;16.50;85.30;;;;;;5001510;28;20191;-78
2021/06/29 04:02:36;;;;;;;1.85;1.40;;;16.50;85.20;;;;;;5035098;28;20053;-77
2021/06/29 04:05:04;;;;;;;2.40;1.42;;;16.30;85.70;;;;;;5018329;28;20029;-78
2021/06/29 04:07:30;;;;;;;3.22;1.48;;;16.30;85.60;;;;;;5019195;28;20029;-77
2021/06/29 04:09:56;;;;;;;1.73;1.40;;;16.30;86.30;;;;;;5019535;28;20022;-77
2021/06/29 04:12:22;;;;;;;2.88;1.40;;;16.30;85.50;;;;;;5037518;28;20032;-78
2021/06/29 04:14:47;;;;;;;2.67;1.50;;;16.30;84.90;;;;;;5020002;28;20144;-77
2021/06/29 04:17:14;;;;;;;1.83;1.42;;;16.30;84.80;;;;;;5021661;28;20026;-78
2021/06/29 04:19:40;;;;;;;3.33;1.10;;;16.30;85.20;;;;;;5035101;28;20033;-77
2021/06/29 04:22:07;;;;;;;2.58;1.10;;;16.30;84.30;;;;;;5017242;28;20480;-78
2021/06/29 04:24:33;;;;;;;4.22;1.52;;;16.40;84.50;;;;;;5017278;28;20040;-79
2021/06/29 04:26:59;;;;;;;1.30;1.20;;;16.40;84.40;;;;;;5034760;28;20047;-79
2021/06/29 04:29:25;;;;;;;5.55;1.65;;;16.30;84.20;;;;;;5000791;28;20477;-79
2021/06/29 04:31:51;;;;;;;4.10;1.30;;;16.30;83.80;;;;;;5016961;28;20022;-79
2021/06/29 04:34:17;;;;;;;1.83;1.20;;;16.30;84.40;;;;;;5034720;28;20109;-79
2021/06/29 04:36:44;;;;;;;1.98;1.48;;;16.30;84.50;;;;;;5016500;28;20061;-79
2021/06/29 04:39:11;;;;;;;1.77;1.33;;;16.30;84.90;;;;;;5016619;28;20078;-79
2021/06/29 04:41:37;;;;;;;2.05;1.55;;;16.30;85.60;;;;;;5034581;28;20033;-79
2021/06/29 04:44:04;;;;;;;1.50;1.40;;;16.30;85.50;;;;;;5000575;28;20033;-79
2021/06/29 04:46:30;;;;;;;1.90;1.50;;;16.30;85.20;;;;;;5016104;28;20037;-79
2021/06/29 04:48:56;;;;;;;1.55;1.45;;;16.30;85.80;;;;;;5000728;28;20930;-79
2021/06/29 04:51:23;;;;;;;3.08;1.52;;;16.20;84.70;;;;;;5016909;28;20021;-79
2021/06/29 04:53:49;;;;;;;4.15;1.63;;;16.10;86.00;;;;;;5034325;28;20037;-78
2021/06/29 04:56:18;;;;;;;6.60;1.40;;;16.10;84.10;;;;;;5034723;28;20021;-79
2021/06/29 04:58:56;;;;;;;4.00;1.48;;;16.20;83.10;;;;;;5000702;28;20172;-78
2021/06/29 05:01:22;;;;;;;2.17;1.75;;;16.20;83.00;;;;;;5034409;28;20513;-79
2021/06/29 05:03:48;;;;;;;1.60;1.50;;;16.20;83.80;;;;;;5016444;28;20029;-78
2021/06/29 05:06:15;;;;;;;1.98;1.10;;;16.20;83.70;;;;;;5016711;28;20048;-79
2021/06/29 05:08:42;;;;;;;1.13;1.02;;;16.20;83.20;;;;;;5016629;28;20124;-78
2021/06/29 05:11:08;;;;;;;4.25;1.73;;;16.30;83.00;;;;;;5034466;28;20025;-79
2021/06/29 05:13:33;;;;;;;4.43;1.45;;;16.30;83.50;;;;;;5016731;28;20535;-79
2021/06/29 05:15:59;;;;;;;1.77;1.30;;;16.40;82.50;;;;;;5016917;28;20033;-79
2021/06/29 05:18:25;;;;;;;1.63;1.33;;;16.40;82.40;;;;;;5016500;28;20040;-79
2021/06/29 05:20:51;;;;;;;2.60;1.20;;;16.50;81.40;;;;;;5016020;28;20033;-79
2021/06/29 05:23:16;;;;;;;1.52;1.35;;;16.60;80.90;;;;;;5000006;28;20026;-78
2021/06/29 05:25:42;;;;;;;0.93;0.93;;;16.70;80.80;;;;;;5016433;28;20033;-78
2021/06/29 05:28:08;;;;;;;3.15;1.17;;;16.80;80.70;;;;;;4999675;28;20037;-77
2021/06/29 05:30:35;;;;;;;1.85;0.98;;;16.90;80.40;;;;;;5014117;28;20014;-79
2021/06/29 05:33:00;;;;;;;3.60;1.55;;;17.10;78.90;;;;;;5013370;28;20057;-79
2021/06/29 05:35:29;;;;;;;1.77;1.50;;;17.20;79.00;;;;;;4999269;28;20147;-79
2021/06/29 05:37:54;;;;;;;2.42;1.20;;;17.20;79.60;;;;;;5016001;28;20043;-79
2021/06/29 05:40:20;;;;;;;3.17;1.23;;;17.30;80.30;;;;;;5015728;28;20021;-78
2021/06/29 05:42:45;;;;;;;3.80;1.42;;;17.40;80.80;;;;;;5015890;28;20079;-78
2021/06/29 05:45:14;;;;;;;1.55;1.33;;;17.50;81.20;;;;;;5034055;28;20028;-78
2021/06/29 05:47:42;;;;;;;1.10;1.10;;;17.60;80.60;;;;;;5017035;28;20026;-77
2021/06/29 05:50:10;;;;;;;2.35;0.90;;;17.70;79.60;;;;;;5007624;28;20474;-77
2021/06/29 05:52:37;;;;;;;1.50;1.20;;;17.80;78.50;;;;;;5018148;28;20038;-77
2021/06/29 05:55:04;;;;;;;1.17;1.00;;;17.90;78.20;;;;;;5015551;28;20060;-79
2021/06/29 05:57:30;;;;;;;3.00;1.38;;;18.00;77.80;;;;;;4999751;28;20067;-79
2021/06/29 05:59:58;;;;;;;1.35;0.98;;;18.10;77.90;;;;;;5016305;28;20026;-79
2021/06/29 06:02:24;;;;;;;1.52;1.33;;;18.10;78.10;;;;;;5012144;28;20064;-77
2021/06/29 06:04:50;;;;;;;1.33;1.00;;;18.20;78.10;;;;;;5012119;28;20018;-78
2021/06/29 06:07:15;;;;;;;2.92;1.10;;;18.20;77.60;;;;;;4995984;28;20030;-78
2021/06/29 06:09:42;;;;;;;1.30;1.20;;;18.20;76.80;;;;;;5011933;28;20483;-77
2021/06/29 06:12:08;;;;;;;1.10;1.00;;;18.20;77.40;;;;;;4999306;28;20072;-79
2021/06/29 06:14:33;;;;;;;1.90;0.90;;;18.20;77.30;;;;;;5001912;28;20022;-78
2021/06/29 06:16:59;;;;;;;1.10;1.00;;;18.30;74.70;;;;;;5017900;28;20032;-79
2021/06/29 06:19:26;;;;;;;1.95;0.98;;;18.40;75.10;;;;;;5013443;28;20026;-79
2021/06/29 06:21:52;;;;;;;1.52;0.98;;;18.50;75.30;;;;;;5012056;28;20022;-79
2021/06/29 06:24:18;;;;;;;1.67;0.80;;;18.60;75.10;;;;;;5012121;28;20034;-77
2021/06/29 06:26:45;;;;;;;1.95;0.90;;;18.80;74.10;;;;;;5011843;28;20366;-79
2021/06/29 06:29:11;;;;;;;2.55;0.90;;;18.70;71.40;;;;;;4995344;28;20025;-79
2021/06/29 06:31:36;;;;;;;0.68;0.68;;;18.90;70.70;;;;;;5012027;28;20033;-79
2021/06/29 06:34:02;;;;;;;1.00;0.75;;;19.00;69.80;;;;;;5012191;28;20382;-79
2021/06/29 06:36:27;;;;;;;1.02;0.93;;;19.10;69.30;;;;;;4995773;28;20022;-79
2021/06/29 06:38:53;;;;;;;1.70;0.82;;;19.30;69.30;;;;;;5013074;28;20113;-79
2021/06/29 06:41:19;;;;;;;1.00;0.90;;;19.30;69.90;;;;;;5011914;28;20060;-79
2021/06/29 06:43:45;;;;;;;1.35;1.10;;;19.30;70.10;;;;;;4995393;28;20026;-79
2021/06/29 06:46:11;;;;;;;1.35;0.93;;;19.50;68.90;;;;;;4995576;28;20026;-77
2021/06/29 06:48:37;;;;;;;1.83;0.90;;;19.50;68.30;;;;;;5011634;28;20524;-78
2021/06/29 06:51:05;;;;;;;0.77;0.77;;;19.60;69.00;;;;;;4995707;28;20395;-78
2021/06/29 06:53:31;;;;;;;2.28;1.02;;;19.70;67.90;;;;;;5011978;28;20022;-78
2021/06/29 06:55:58;;;;;;;1.15;0.90;;;19.70;69.20;;;;;;5012953;28;20445;-77
2021/06/29 06:58:25;;;;;;;1.58;0.90;;;19.40;68.60;;;;;;5012820;28;20117;-79
2021/06/29 07:00:51;;;;;;;1.08;0.73;;;19.40;69.20;;;;;;5011758;28;20033;-80
2021/06/29 07:03:17;;;;;;;1.55;0.93;;;19.30;69.90;;;;;;5012801;28;20053;-79
2021/06/29 07:05:43;;;;;;;1.48;0.85;;;19.30;69.80;;;;;;5011268;28;20071;-78
2021/06/29 07:08:09;;;;;;;2.53;1.00;;;19.30;69.80;;;;;;5012812;28;20026;-80
2021/06/29 07:10:36;;;;;;;1.85;0.90;;;19.10;70.70;;;;;;5016538;28;20029;-78
2021/06/29 07:13:01;;;;;;;1.42;0.90;;;19.20;72.00;;;;;;5015289;28;20029;-79
2021/06/29 07:15:29;;;;;;;1.15;1.05;;;19.30;71.80;;;;;;4999081;28;20426;-78
2021/06/29 07:17:54;;;;;;;1.10;1.00;;;19.40;71.40;;;;;;4998876;28;20030;-84
2021/06/29 07:20:20;;;;;;;4.30;0.82;;;19.60;71.40;;;;;;5015217;28;20018;-87
2021/06/29 07:22:46;;;;;;;2.88;1.08;;;19.80;70.20;;;;;;4999199;28;20510;-81
2021/06/29 07:25:14;;;;;;;2.25;1.00;;;19.80;69.70;;;;;;5016484;28;20033;-81
2021/06/29 07:27:41;;;;;;;1.35;0.90;;;20.00;68.70;;;;;;4999230;28;20026;-82
2021/06/29 07:30:08;;;;;;;1.20;0.90;;;20.10;68.40;;;;;;5014881;28;20026;-83
2021/06/29 07:32:36;;;;;;;3.22;1.20;;;20.10;68.90;;;;;;4982396;28;20030;-81
2021/06/29 07:35:03;;;;;;;1.17;0.90;;;20.20;67.50;;;;;;5015114;28;20026;-83
2021/06/29 07:37:32;;;;;;;1.10;0.75;;;20.30;67.70;;;;;;4998701;28;20054;-80
2021/06/29 07:40:02;;;;;;;0.90;0.77;;;20.40;67.30;;;;;;5015118;28;20145;-79
2021/06/29 07:42:34;;;;;;;1.70;1.05;;;20.40;66.50;;;;;;5014801;28;20022;-82
2021/06/29 07:45:00;;;;;;;3.30;1.10;;;20.20;67.30;;;;;;5015284;28;20402;-79
2021/06/29 07:47:26;;;;;;;1.45;0.75;;;20.20;68.70;;;;;;4998072;28;20489;-79
2021/06/29 07:49:52;;;;;;;1.92;1.00;;;20.10;67.80;;;;;;5015789;28;20022;-80
2021/06/29 07:52:23;;;;;;;3.22;0.95;;;20.10;68.40;;;;;;4998092;28;20038;-79
2021/06/29 07:54:49;;;;;;;1.00;0.90;;;20.10;69.20;;;;;;5015987;28;20390;-80
2021/06/29 07:57:15;;;;;;;2.00;0.80;;;19.90;68.60;;;;;;5014239;28;20045;-79
2021/06/29 07:59:43;;;;;;;1.65;1.05;;;19.90;69.50;;;;;;4998450;28;20041;-83
2021/06/29 08:02:09;;;;;;;0.98;0.90;;;20.10;69.00;;;;;;5011747;28;20042;-83
2021/06/29 08:04:37;;;;;;;1.58;0.90;;;20.30;68.90;;;;;;5013814;28;20587;-83
2021/06/29 08:07:03;;;;;;;1.38;1.00;;;20.40;67.10;;;;;;5015903;28;20026;-83
2021/06/29 08:09:29;;;;;;;1.35;0.82;;;20.50;67.30;;;;;;4998189;28;20037;-83
2021/06/29 08:11:57;;;;;;;1.40;0.73;;;20.50;67.10;;;;;;4982007;28;20033;-82
2021/06/29 08:14:23;;;;;;;1.23;1.00;;;20.60;66.40;;;;;;5015171;28;20026;-83
2021/06/29 08:16:50;;;;;;;3.50;0.98;;;20.70;66.70;;;;;;4981377;28;20041;-84
2021/06/29 08:19:18;;;;;;;0.98;0.80;;;20.80;66.60;;;;;;4998198;28;20056;-82
2021/06/29 08:21:43;;;;;;;0.98;0.70;;;21.10;66.90;;;;;;4997899;28;20026;-81
2021/06/29 08:24:10;;;;;;;1.30;0.80;;;21.20;63.60;;;;;;4997677;28;20117;-82
2021/06/29 08:26:37;;;;;;;2.47;1.15;;;21.30;63.90;;;;;;4997954;28;20044;-82
2021/06/29 08:29:03;;;;;;;0.80;0.80;;;21.40;65.00;;;;;;5014419;28;20034;-81
2021/06/29 08:31:29;;;;;;;0.77;0.70;;;21.50;63.80;;;;;;4997948;28;20022;-82
2021/06/29 08:33:54;;;;;;;1.23;0.60;;;21.60;63.00;;;;;;5015552;28;20025;-81
2021/06/29 08:36:22;;;;;;;0.70;0.70;;;21.90;62.90;;;;;;4997429;28;20022;-81
2021/06/29 08:38:49;;;;;;;1.42;0.90;;;22.10;62.60;;;;;;4997144;28;20465;-80
2021/06/29 08:41:16;;;;;;;1.65;0.77;;;22.20;61.10;;;;;;5015103;28;20057;-80
2021/06/29 08:43:41;;;;;;;1.02;0.95;;;22.20;61.20;;;;;;4997354;28;20474;-83
2021/06/29 08:46:09;;;;;;;0.77;0.70;;;22.20;61.00;;;;;;5015587;28;20034;-83
2021/06/29 08:48:36;;;;;;;1.50;0.60;;;22.20;62.20;;;;;;5013677;28;20026;-84
2021/06/29 08:51:05;;;;;;;0.73;0.55;;;22.20;62.30;;;;;;4997399;28;20053;-84
2021/06/29 08:53:32;;;;;;;1.35;0.73;;;22.40;63.00;;;;;;4981144;28;20174;-84
2021/06/29 08:55:59;;;;;;;2.75;0.80;;;22.70;62.90;;;;;;4996890;28;20029;-84
2021/06/29 08:58:27;;;;;;;1.00;0.77;;;22.90;62.50;;;;;;4997128;28;20447;-84
2021/06/29 09:00:55;;;;;;;0.98;0.65;;;23.10;59.30;;;;;;4997202;28;20018;-84
2021/06/29 09:03:22;;;;;;;2.15;0.70;;;23.10;58.80;;;;;;4994008;28;20104;-83
2021/06/29 09:05:53;;;;;;;2.70;0.88;;;23.10;58.30;;;;;;4994871;28;20034;-84
2021/06/29 09:08:24;;;;;;;2.83;1.10;;;23.20;59.00;;;;;;4997560;28;20474;-82
2021/06/29 09:11:17;;;;;;;0.70;0.70;;;23.30;59.10;;;;;;5013989;28;20033;-82
2021/06/29 09:14:01;;;;;;;5.03;0.77;;;23.30;57.90;;;;;;5014028;28;20025;-82
2021/06/29 09:16:27;;;;;;;1.95;0.68;;;23.20;57.30;;;;;;5012521;28;20029;-82
2021/06/29 09:18:54;;;;;;;1.58;0.55;;;23.20;58.70;;;;;;4996916;28;20046;-82
2021/06/29 09:21:24;;;;;;;1.92;0.90;;;23.30;59.20;;;;;;5014156;28;20082;-83
2021/06/29 09:23:51;;;;;;;0.88;0.60;;;23.40;59.90;;;;;;4996522;28;20559;-83
2021/06/29 09:26:29;;;;;;;2.67;0.80;;;23.60;58.40;;;;;;4997047;28;20113;-85
2021/06/29 09:29:02;;;;;;;0.60;0.60;;;23.80;59.00;;;;;;4998242;28;20149;-84
2021/06/29 09:31:31;;;;;;;1.63;0.60;;;23.90;58.10;;;;;;4996863;28;20056;-85
2021/06/29 09:34:04;;;;;;;0.73;0.73;;;24.10;58.00;;;;;;4996118;28;20021;-79
2021/06/29 09:36:33;;;;;;;0.63;0.50;;;24.10;57.90;;;;;;4996715;28;20025;-79
2021/06/29 09:39:10;;;;;;;1.60;0.80;;;24.30;57.90;;;;;;4996894;28;20034;-83
2021/06/29 09:41:41;;;;;;;1.17;0.75;;;24.50;57.50;;;;;;4998790;28;20034;-80
2021/06/29 09:44:12;;;;;;;1.55;0.75;;;24.70;56.10;;;;;;5003926;28;20041;-78
2021/06/29 09:46:40;;;;;;;0.70;0.60;;;24.80;55.40;;;;;;5037115;28;20030;-78
2021/06/29 09:49:15;;;;;;;0.60;0.60;;;24.80;54.30;;;;;;5027546;28;20026;-79
2021/06/29 09:51:42;;;;;;;;;;;24.90;54.50;;;;;;4996290;28;20141;-81
2021/06/29 09:54:10;;;;;;;1.02;0.60;;;24.90;57.80;;;;;;5012679;28;19906;-80
2021/06/29 09:56:43;;;;;;;2.65;0.80;;;25.00;54.60;;;;;;4996381;28;20034;-82
2021/06/29 09:59:17;;;;;;;0.52;0.40;;;25.10;55.00;;;;;;5013842;28;20475;-82
2021/06/29 10:02:06;;;;;;;0.55;0.45;;;25.20;54.20;;;;;;5013920;28;20525;-83
2021/06/29 10:04:32;;;;;;;0.57;0.57;;;25.40;52.80;;;;;;5013223;28;20038;-85
2021/06/29 10:07:24;;;;;;;1.13;0.70;;;25.50;53.50;;;;;;5013256;28;20025;-81
2021/06/29 10:10:19;;;;;;;0.60;0.60;;;25.40;54.50;;;;;;5013077;28;20026;-83
2021/06/29 10:12:48;;;;;;;2.08;0.60;;;25.30;55.40;;;;;;5005371;28;20033;-83
2021/06/29 10:15:16;;;;;;;2.65;0.90;;;25.40;55.80;;;;;;5012545;28;20033;-80
2021/06/29 10:17:43;;;;;;;1.25;0.90;;;25.40;55.20;;;;;;5011760;28;20034;-85
2021/06/29 10:20:26;;;;;;;1.27;1.17;;;25.10;55.60;;;;;;5011676;28;20056;-84
2021/06/29 10:22:56;;;;;;;2.05;1.35;;;25.10;58.30;;;;;;5004694;28;20026;-83
2021/06/29 10:25:23;;;;;;;1.77;1.10;;;25.30;58.30;;;;;;5011682;28;20026;-80
2021/06/29 10:27:49;;;;;;;7.57;4.93;;;25.40;57.70;;;;;;4994096;28;20092;-80
2021/06/29 10:30:18;;;;;;;3.25;2.17;;;25.50;57.20;;;;;;5013071;28;20025;-84
2021/06/29 10:32:47;;;;;;;2.42;1.67;;;25.70;56.30;;;;;;5000421;28;20036;-82
2021/06/29 10:35:22;;;;;;;2.22;1.27;;;25.40;55.40;;;;;;5007899;28;20498;-80
2021/06/29 10:37:52;;;;;;;1.38;1.10;;;25.60;55.50;;;;;;4976276;28;20126;-80
2021/06/29 10:40:18;;;;;;;2.75;0.70;;;25.70;54.90;;;;;;4992128;28;20058;-81
2021/06/29 10:42:46;;;;;;;2.88;0.85;;;25.80;54.60;;;;;;4992054;28;20054;-81
2021/06/29 10:45:19;;;;;;;2.05;0.90;;;25.90;53.50;;;;;;4991214;28;20387;-81
2021/06/29 10:48:23;;;;;;;1.85;0.98;;;25.70;53.60;;;;;;4991226;28;20036;-81
2021/06/29 10:50:53;;;;;;;1.47;0.93;;;25.80;53.90;;;;;;5012529;28;20117;-81
2021/06/29 10:53:45;;;;;;;3.78;0.63;;;25.80;54.10;;;;;;5012505;28;20026;-81
2021/06/29 10:56:17;;;;;;;1.58;1.00;;;26.00;53.30;;;;;;4995381;28;20038;-81
2021/06/29 10:59:14;;;;;;;1.42;1.00;;;25.80;52.80;;;;;;4994824;28;20042;-81
2021/06/29 11:01:54;;;;;;;2.45;1.10;;;25.50;54.20;;;;;;4994516;28;20034;-81
2021/06/29 11:05:01;;;;;;;2.58;0.95;;;25.60;55.00;;;;;;4979060;28;20390;-81
2021/06/29 11:07:40;;;;;;;2.08;1.20;;;25.70;55.30;;;;;;4996369;28;20109;-81
2021/06/29 11:10:14;;;;;;;1.30;1.15;;;25.60;53.10;;;;;;4994789;28;20102;-81
2021/06/29 11:12:53;;;;;;;3.80;1.05;;;25.40;53.90;;;;;;4992074;28;20030;-81
2021/06/29 11:15:39;;;;;;;1.70;1.27;;;24.80;56.20;;;;;;5012770;28;20034;-81
2021/06/29 11:18:04;;;;;;;;;;;24.60;57.70;;;;;;5011712;28;20564;-81
2021/06/29 11:20:53;;;;;;;1.67;1.25;;;24.60;58.00;;;;;;5011233;28;19906;-81
2021/06/29 11:23:31;;;;;;;1.20;1.10;;;24.80;59.00;;;;;;5011267;28;20061;-81
2021/06/29 11:26:13;;;;;;;1.00;1.00;;;24.80;59.50;;;;;;5012567;28;20041;-81
2021/06/29 11:28:49;;;;;;;3.45;1.40;;;24.80;57.50;;;;;;4995151;28;20085;-80
2021/06/29 11:31:30;;;;;;;4.38;1.80;;;25.10;57.40;;;;;;4995076;28;20114;-80
2021/06/29 11:33:59;;;;;;;2.50;1.25;;;25.30;57.60;;;;;;4994967;28;20534;-79
2021/06/29 11:36:31;;;;;;;1.67;1.00;;;25.50;55.00;;;;;;4995100;28;20030;-80
2021/06/29 11:39:18;;;;;;;4.05;1.25;;;25.00;56.20;;;;;;5012469;28;20096;-82
2021/06/29 11:42:20;;;;;;;2.50;1.45;;;24.40;58.50;;;;;;5010744;28;20121;-81
2021/06/29 11:44:50;;;;;;;4.82;1.27;;;24.30;59.30;;;;;;5014107;28;20022;-82
2021/06/29 11:47:21;;;;;;;2.47;1.10;;;24.30;59.30;;;;;;5011638;28;20022;-80
2021/06/29 11:50:18;;;;;;;2.65;1.40;;;24.40;59.00;;;;;;4963506;28;20026;-80
2021/06/29 11:52:45;;;;;;;1.33;1.20;;;24.30;59.40;;;;;;4994524;28;20022;-80
2021/06/29 11:55:20;;;;;;;4.72;1.17;;;24.30;58.90;;;;;;4994702;28;20033;-80
2021/06/29 11:57:59;;;;;;;3.50;1.33;;;24.40;58.60;;;;;;5014757;28;20032;-81
2021/06/29 12:00:38;;;;;;;1.52;1.08;;;24.10;59.00;;;;;;4999248;28;20116;-81
2021/06/29 12:03:30;;;;;;;2.92;1.30;;;23.80;59.60;;;;;;4983426;28;20084;-81
2021/06/29 12:05:57;;;;;;;2.55;1.67;;;23.40;61.60;;;;;;5034060;28;20030;-80
2021/06/29 12:08:29;;;;;;;1.50;1.02;;;23.10;63.20;;;;;;5003127;28;20056;-80
2021/06/29 12:10:57;;;;;;;1.52;1.30;;;22.80;64.20;;;;;;5001388;28;20033;-79
2021/06/29 12:13:26;;;;;;;3.30;1.52;;;22.50;64.50;;;;;;5018404;28;20038;-79
2021/06/29 12:16:17;;;;;;;5.10;1.42;;;22.10;66.20;;;;;;5020612;28;20393;-78
2021/06/29 12:18:48;;;;;;;1.48;0.43;;;21.70;67.80;;;;;;5003133;28;20124;-82
2021/06/29 12:22:02;;;;;;;4.63;0.60;;;21.30;56.40;;;;;;5017582;28;20029;-82
2021/06/29 12:25:15;;;;;;;1.25;0.22;;;19.50;50.90;;;;;;5033806;28;20116;-82
2021/06/29 12:29:13;;;;;;;5.55;0.55;;;17.60;57.80;;;;;;5034489;28;20032;-84
2021/06/29 12:32:14;;;;;;;2.40;0.80;;;16.70;70.40;;;;;;4935952;29;20078;-80
2021/06/29 12:34:40;;;;;;;2.10;0.40;;;15.20;79.40;;;;;;4987729;28;20034;-80
2021/06/29 12:37:06;;;;;;;2.70;0.52;;;14.70;82.30;;;;;;5016983;28;20496;-80
2021/06/29 12:39:31;;;;;;;3.92;1.00;;;14.60;84.00;;;;;;5000681;28;20033;-79
2021/06/29 12:41:57;;;;;;;4.95;1.20;;;14.50;87.00;;;;;;5016856;28;20501;-79
2021/06/29 12:44:26;;;;;;;4.30;0.93;;;14.60;88.80;;;;;;5016975;28;20083;-79
2021/06/29 12:46:52;;;;;;;2.65;0.77;;;14.60;87.30;;;;;;5016637;28;20056;-79
2021/06/29 12:49:21;;;;;;;2.55;0.70;;;14.90;88.30;;;;;;5000409;28;20056;-79
2021/06/29 12:52:00;;;;;;;2.85;0.60;;;15.00;88.50;;;;;;5017093;28;20493;-79
2021/06/29 12:54:29;;;;;;;4.70;0.70;;;15.20;86.80;;;;;;5016953;28;20033;-79
2021/06/29 12:56:59;;;;;;;1.08;0.63;;;15.40;86.10;;;;;;5034540;28;20023;-80
2021/06/29 12:59:28;;;;;;;5.35;0.85;;;15.50;83.30;;;;;;5017047;28;20489;-79
2021/06/29 13:01:58;;;;;;;2.83;0.65;;;15.60;82.40;;;;;;4996537;28;20086;-79